createdAt,value
2017-06-29T00:01:53.163Z,18.80
2017-06-29T00:04:19.663Z,18.70
2017-06-29T00:06:46.157Z,18.70
2017-06-29T00:09:12.612Z,18.70
2017-06-29T00:11:39.143Z,18.70
2017-06-29T00:14:05.617Z,18.60
2017-06-29T00:16:32.860Z,18.60
2017-06-29T00:19:00.100Z,18.50
2017-06-29T00:21:26.567Z,18.50
2017-06-29T00:23:53.057Z,18.40
2017-06-29T00:26:19.521Z,18.40
2017-06-29T00:28:46.348Z,18.30
2017-06-29T00:31:12.806Z,18.30
2017-06-29T00:33:39.270Z,18.30
2017-06-29T00:36:05.913Z,18.20
2017-06-29T00:38:32.405Z,18.20
2017-06-29T00:40:58.908Z,18.10
2017-06-29T00:43:26.180Z,18.00
2017-06-29T00:45:52.659Z,18.00
2017-06-29T00:48:19.139Z,18.00
2017-06-29T00:50:45.660Z,17.90
2017-06-29T00:53:12.894Z,17.70
2017-06-29T00:55:39.409Z,17.70
2017-06-29T00:58:05.869Z,17.60
2017-06-29T01:00:33.161Z,17.50
2017-06-29T01:02:59.663Z,17.40
2017-06-29T01:05:26.908Z,17.40
2017-06-29T01:10:51.081Z,17.30
2017-06-29T01:13:17.588Z,17.20
2017-06-29T01:15:44.087Z,17.20
2017-06-29T01:18:10.618Z,17.10
2017-06-29T01:20:37.187Z,17.10
2017-06-29T01:23:03.671Z,17.10
2017-06-29T01:25:30.968Z,17.00
2017-06-29T01:27:57.441Z,17.00
2017-06-29T01:30:23.942Z,17.00
2017-06-29T01:32:50.482Z,16.90
2017-06-29T01:35:16.976Z,17.00
2017-06-29T01:37:43.547Z,16.90
2017-06-29T01:40:10.052Z,16.90
2017-06-29T01:42:36.593Z,16.90
2017-06-29T01:45:03.115Z,16.90
2017-06-29T01:47:29.864Z,16.90
2017-06-29T01:49:56.369Z,16.80
2017-06-29T01:52:23.623Z,16.90
2017-06-29T01:54:50.214Z,16.80
2017-06-29T01:57:16.767Z,16.80
2017-06-29T01:59:43.559Z,16.80
2017-06-29T02:02:10.071Z,16.80
2017-06-29T02:04:36.604Z,16.80
2017-06-29T02:07:03.128Z,16.80
2017-06-29T02:09:30.373Z,16.70
2017-06-29T02:11:57.788Z,16.80
2017-06-29T02:14:24.299Z,16.70
2017-06-29T02:16:50.785Z,16.70
2017-06-29T02:19:18.316Z,16.70
2017-06-29T02:21:44.789Z,16.70
2017-06-29T02:24:11.321Z,16.60
2017-06-29T02:26:37.844Z,16.60
2017-06-29T02:29:04.323Z,16.60
2017-06-29T02:31:30.834Z,16.60
2017-06-29T02:33:57.305Z,16.60
2017-06-29T02:36:23.863Z,16.60
2017-06-29T02:38:50.337Z,16.60
2017-06-29T02:41:16.809Z,16.50
2017-06-29T02:43:43.441Z,16.50
2017-06-29T02:46:09.932Z,16.40
2017-06-29T02:48:36.415Z,16.40
2017-06-29T02:51:02.933Z,16.40
2017-06-29T02:53:29.405Z,16.30
2017-06-29T02:55:56.905Z,16.30
2017-06-29T02:58:23.374Z,16.20
2017-06-29T03:00:49.885Z,16.20
2017-06-29T03:03:16.467Z,16.20
2017-06-29T03:05:42.950Z,16.10
2017-06-29T03:08:09.447Z,16.10
2017-06-29T03:10:35.939Z,16.10
2017-06-29T03:13:02.439Z,16.10
2017-06-29T03:15:28.952Z,16.10
2017-06-29T03:17:55.449Z,16.00
2017-06-29T03:20:22.732Z,16.00
2017-06-29T03:22:49.244Z,16.00
2017-06-29T03:25:16.527Z,16.00
2017-06-29T03:27:43.164Z,16.00
2017-06-29T03:30:09.686Z,16.00
2017-06-29T03:32:36.176Z,16.00
2017-06-29T03:35:02.674Z,16.00
2017-06-29T03:37:29.141Z,16.00
2017-06-29T03:39:55.834Z,16.00
2017-06-29T03:42:22.329Z,16.00
2017-06-29T03:44:49.560Z,16.00
2017-06-29T03:47:16.054Z,16.00
2017-06-29T03:49:42.558Z,16.00
2017-06-29T03:52:09.602Z,16.00
2017-06-29T03:54:36.065Z,16.00
2017-06-29T03:57:02.668Z,16.00
2017-06-29T03:59:29.154Z,16.00
2017-06-29T04:01:55.679Z,16.10
2017-06-29T04:04:22.171Z,16.10
2017-06-29T04:06:48.656Z,16.10
2017-06-29T04:09:15.391Z,16.10
2017-06-29T04:11:41.894Z,16.10
2017-06-29T04:14:08.347Z,16.10
2017-06-29T04:16:34.880Z,16.10
2017-06-29T04:19:01.354Z,16.10
2017-06-29T04:21:28.644Z,16.10
2017-06-29T04:23:55.138Z,16.10
2017-06-29T04:26:22.404Z,16.10
2017-06-29T04:28:48.885Z,16.10
2017-06-29T04:31:15.542Z,16.10
2017-06-29T04:33:41.996Z,16.10
2017-06-29T04:36:09.241Z,16.10
2017-06-29T04:38:35.746Z,16.10
2017-06-29T04:41:02.212Z,16.10
2017-06-29T04:43:29.433Z,16.10
2017-06-29T04:45:56.006Z,16.10
2017-06-29T04:48:22.471Z,16.10
2017-06-29T04:50:49.007Z,16.00
2017-06-29T04:53:15.486Z,16.00
2017-06-29T04:55:42.757Z,16.00
2017-06-29T04:58:09.229Z,16.00
2017-06-29T05:00:35.742Z,16.00
2017-06-29T05:03:02.260Z,16.10
2017-06-29T05:05:28.737Z,16.10
2017-06-29T05:07:55.445Z,16.20
2017-06-29T05:10:21.927Z,16.20
2017-06-29T05:12:49.159Z,16.30
2017-06-29T05:15:15.725Z,16.30
2017-06-29T05:17:42.950Z,16.30
2017-06-29T05:20:09.473Z,16.20
2017-06-29T05:22:36.016Z,16.30
2017-06-29T05:25:02.515Z,16.30
2017-06-29T05:27:29.008Z,16.30
2017-06-29T05:29:56.402Z,16.30
2017-06-29T05:32:22.924Z,16.30
2017-06-29T05:34:49.416Z,16.30
2017-06-29T05:37:16.683Z,16.40
2017-06-29T05:39:43.908Z,16.40
2017-06-29T05:42:10.602Z,16.40
2017-06-29T05:44:37.051Z,16.50
2017-06-29T05:47:03.517Z,16.50
2017-06-29T05:49:30.018Z,16.50
2017-06-29T05:51:56.555Z,16.60
2017-06-29T05:54:23.047Z,16.60
2017-06-29T05:56:49.622Z,16.60
2017-06-29T05:59:16.259Z,16.70
2017-06-29T06:01:42.772Z,16.70
2017-06-29T06:04:09.211Z,16.60
2017-06-29T06:06:35.724Z,16.60
2017-06-29T06:09:02.307Z,16.60
2017-06-29T06:11:28.833Z,16.50
2017-06-29T06:13:55.380Z,16.40
2017-06-29T06:16:22.611Z,16.40
2017-06-29T06:18:49.120Z,16.30
2017-06-29T06:21:15.619Z,16.30
2017-06-29T06:23:43.123Z,16.30
2017-06-29T06:26:09.647Z,16.30
2017-06-29T06:28:36.159Z,16.30
2017-06-29T06:31:02.821Z,16.30
2017-06-29T06:33:29.324Z,16.30
2017-06-29T06:35:55.779Z,16.30
2017-06-29T06:38:22.352Z,16.30
2017-06-29T06:40:48.830Z,16.30
2017-06-29T06:43:15.346Z,16.30
2017-06-29T06:45:41.846Z,16.40
2017-06-29T06:48:08.363Z,16.40
2017-06-29T06:50:34.851Z,16.40
2017-06-29T06:53:01.641Z,16.40
2017-06-29T06:55:28.128Z,16.40
2017-06-29T06:57:54.611Z,16.40
2017-06-29T07:00:21.135Z,16.40
2017-06-29T07:02:47.634Z,16.40
2017-06-29T07:05:14.176Z,16.40
2017-06-29T07:07:40.674Z,16.50
2017-06-29T07:10:07.861Z,16.70
2017-06-29T07:12:34.366Z,16.70
2017-06-29T07:15:00.863Z,16.70
2017-06-29T07:17:27.321Z,16.80
2017-06-29T07:19:54.584Z,16.90
2017-06-29T07:22:21.041Z,16.90
2017-06-29T07:24:47.594Z,17.00
2017-06-29T07:27:14.103Z,17.10
2017-06-29T07:29:40.586Z,17.20
2017-06-29T07:32:07.120Z,17.30
2017-06-29T07:34:33.590Z,17.40
2017-06-29T07:37:00.344Z,17.40
2017-06-29T07:39:26.851Z,17.60
2017-06-29T07:41:53.320Z,17.70
2017-06-29T07:44:19.858Z,17.70
2017-06-29T07:46:46.332Z,17.80
2017-06-29T07:49:12.978Z,17.90
2017-06-29T07:51:39.471Z,18.00
2017-06-29T07:54:05.941Z,18.00
2017-06-29T07:56:32.464Z,18.00
2017-06-29T07:58:59.663Z,18.00
2017-06-29T08:01:26.195Z,17.90
2017-06-29T08:03:52.655Z,18.00
2017-06-29T08:06:19.196Z,18.10
2017-06-29T08:08:45.689Z,18.10
2017-06-29T08:11:12.146Z,18.20
2017-06-29T08:13:38.668Z,18.40
2017-06-29T08:16:05.160Z,18.60
2017-06-29T08:18:31.688Z,18.70
2017-06-29T08:20:58.905Z,19.10
2017-06-29T08:23:25.521Z,19.00
2017-06-29T08:25:52.020Z,19.10
2017-06-29T08:28:18.551Z,19.10
2017-06-29T08:30:45.089Z,19.10
2017-06-29T08:33:11.597Z,19.10
2017-06-29T08:35:38.130Z,19.10
2017-06-29T08:38:05.361Z,19.10
2017-06-29T08:40:31.837Z,19.10
2017-06-29T08:42:58.370Z,19.20
2017-06-29T08:45:24.840Z,19.30
2017-06-29T08:47:51.356Z,19.30
2017-06-29T08:50:17.893Z,19.20
2017-06-29T08:52:44.433Z,19.20
2017-06-29T08:55:10.944Z,19.20
2017-06-29T08:57:37.407Z,19.40
2017-06-29T09:00:03.923Z,19.40
2017-06-29T09:02:30.422Z,19.50
2017-06-29T09:04:56.953Z,19.70
2017-06-29T09:07:24.203Z,20.20
2017-06-29T09:09:51.426Z,20.70
2017-06-29T09:12:18.138Z,20.60
2017-06-29T09:14:44.631Z,21.00
2017-06-29T09:17:11.101Z,21.40
2017-06-29T09:19:37.634Z,22.00
2017-06-29T09:22:04.122Z,22.30
2017-06-29T09:24:30.635Z,22.70
2017-06-29T09:26:57.157Z,23.00
2017-06-29T09:29:23.736Z,23.30
2017-06-29T09:31:50.274Z,23.50
2017-06-29T09:34:16.755Z,23.60
2017-06-29T09:36:43.270Z,23.80
2017-06-29T09:39:09.732Z,23.80
2017-06-29T09:41:36.339Z,24.10
2017-06-29T09:44:02.801Z,24.30
2017-06-29T09:46:29.266Z,24.70
2017-06-29T09:48:55.951Z,24.70
2017-06-29T09:51:22.423Z,24.40
2017-06-29T09:53:49.634Z,23.50
2017-06-29T09:56:16.128Z,23.50
2017-06-29T09:58:42.629Z,23.30
2017-06-29T10:01:09.882Z,23.40
2017-06-29T10:03:37.109Z,23.60
2017-06-29T10:06:03.603Z,23.60
2017-06-29T10:08:30.349Z,23.60
2017-06-29T10:10:56.846Z,23.40
2017-06-29T10:13:24.068Z,22.80
2017-06-29T10:15:50.597Z,22.80
2017-06-29T10:18:17.055Z,22.60
2017-06-29T10:20:44.900Z,22.20
2017-06-29T10:23:11.381Z,22.20
2017-06-29T10:25:37.895Z,22.00
2017-06-29T10:28:04.408Z,21.80
2017-06-29T10:30:31.661Z,22.00
2017-06-29T10:32:58.905Z,22.50
2017-06-29T10:35:25.423Z,22.50
2017-06-29T10:37:51.946Z,23.10
2017-06-29T10:40:18.450Z,23.50
2017-06-29T10:42:44.958Z,23.70
2017-06-29T10:45:11.412Z,24.10
2017-06-29T10:47:37.965Z,24.40
2017-06-29T10:50:04.453Z,24.50
2017-06-29T10:52:31.740Z,24.50
2017-06-29T10:54:58.274Z,24.50
2017-06-29T10:57:24.788Z,24.50
2017-06-29T10:59:51.309Z,24.40
2017-06-29T11:02:17.778Z,24.20
2017-06-29T11:04:44.299Z,24.10
2017-06-29T11:07:10.794Z,23.90
2017-06-29T11:09:38.021Z,23.80
2017-06-29T11:12:04.530Z,23.80
2017-06-29T11:14:31.000Z,23.70
2017-06-29T11:16:58.258Z,23.80
2017-06-29T11:19:24.751Z,23.70
2017-06-29T11:21:51.284Z,23.80
2017-06-29T11:24:17.752Z,23.80
2017-06-29T11:26:44.999Z,23.80
2017-06-29T11:29:12.417Z,23.70
2017-06-29T11:31:38.969Z,23.70
2017-06-29T11:34:05.459Z,23.50
2017-06-29T11:36:31.999Z,23.40
2017-06-29T11:38:58.473Z,23.30
2017-06-29T11:41:24.995Z,23.30
2017-06-29T11:43:51.459Z,23.30
2017-06-29T11:46:18.694Z,23.40
2017-06-29T11:48:45.178Z,23.30
2017-06-29T11:51:11.702Z,23.50
2017-06-29T11:53:38.183Z,23.50
2017-06-29T11:56:04.643Z,23.50
2017-06-29T11:58:31.889Z,23.60
2017-06-29T12:00:59.109Z,23.60
2017-06-29T12:03:25.621Z,23.60
2017-06-29T12:05:52.106Z,23.60
2017-06-29T12:08:19.304Z,23.50
2017-06-29T12:10:45.793Z,23.50
2017-06-29T12:13:13.028Z,23.50
2017-06-29T12:15:40.546Z,23.40
2017-06-29T12:18:07.051Z,23.40
2017-06-29T12:20:33.583Z,23.40
2017-06-29T12:23:00.356Z,23.30
2017-06-29T12:25:26.851Z,23.30
2017-06-29T12:27:53.328Z,23.30
2017-06-29T12:30:19.858Z,23.30
2017-06-29T12:32:46.395Z,23.30
2017-06-29T12:35:12.928Z,23.30
2017-06-29T12:37:39.433Z,23.30
2017-06-29T12:40:05.920Z,23.30
2017-06-29T12:42:32.382Z,23.30
2017-06-29T12:44:58.921Z,23.30
2017-06-29T12:47:25.430Z,23.20
2017-06-29T12:49:52.671Z,23.10
2017-06-29T12:52:26.875Z,23.20
2017-06-29T12:54:54.307Z,23.20
2017-06-29T12:57:20.765Z,23.20
2017-06-29T12:59:48.043Z,23.20
2017-06-29T13:02:14.705Z,23.20
2017-06-29T13:04:41.224Z,23.30
2017-06-29T13:07:07.691Z,23.30
2017-06-29T13:09:34.240Z,23.30
2017-06-29T13:12:00.687Z,23.30
2017-06-29T13:14:27.234Z,23.30
2017-06-29T13:16:54.479Z,23.40
2017-06-29T13:19:21.757Z,23.40
2017-06-29T13:21:48.228Z,23.40
2017-06-29T13:24:14.697Z,23.40
2017-06-29T13:26:41.447Z,23.40
2017-06-29T13:29:07.921Z,23.40
2017-06-29T13:31:35.222Z,23.50
2017-06-29T13:34:02.500Z,23.60
2017-06-29T13:36:29.037Z,23.60
2017-06-29T13:38:55.605Z,23.60
2017-06-29T13:41:22.100Z,23.60
2017-06-29T13:43:48.811Z,23.50
2017-06-29T13:46:16.009Z,23.40
2017-06-29T13:48:42.541Z,23.40
2017-06-29T13:51:09.057Z,23.40
2017-06-29T13:53:35.536Z,23.50
2017-06-29T13:56:05.755Z,23.40
2017-06-29T13:58:32.260Z,23.40
2017-06-29T14:00:58.727Z,23.50
2017-06-29T14:03:25.262Z,23.50
2017-06-29T14:05:51.749Z,23.50
2017-06-29T14:08:18.338Z,23.50
2017-06-29T14:10:45.555Z,23.60
2017-06-29T14:13:12.030Z,23.60
2017-06-29T14:15:39.435Z,23.60
2017-06-29T14:18:05.916Z,23.60
2017-06-29T14:20:33.172Z,23.60
2017-06-29T14:22:59.683Z,23.60
2017-06-29T14:25:26.164Z,23.60
2017-06-29T14:27:52.689Z,23.60
2017-06-29T14:30:19.151Z,23.60
2017-06-29T14:32:45.659Z,23.60
2017-06-29T14:35:12.241Z,23.60
2017-06-29T14:37:38.761Z,23.70
2017-06-29T14:40:05.232Z,23.80
2017-06-29T14:42:31.876Z,23.70
2017-06-29T14:44:58.367Z,23.80
2017-06-29T14:47:24.846Z,23.70
2017-06-29T14:49:51.371Z,23.80
2017-06-29T14:52:17.867Z,23.70
2017-06-29T14:54:44.336Z,23.70
2017-06-29T14:57:10.880Z,23.70
2017-06-29T14:59:37.359Z,23.80
2017-06-29T15:02:03.883Z,23.80
2017-06-29T15:04:30.490Z,23.80
2017-06-29T15:06:57.067Z,23.80
2017-06-29T15:09:23.543Z,23.80
2017-06-29T15:11:50.058Z,23.80
2017-06-29T15:14:17.286Z,23.70
2017-06-29T15:16:43.806Z,23.70
2017-06-29T15:19:10.335Z,23.70
2017-06-29T15:21:36.790Z,23.70
2017-06-29T15:24:03.322Z,23.70
2017-06-29T15:26:29.817Z,23.60
2017-06-29T15:28:56.309Z,23.60
2017-06-29T15:31:23.836Z,23.40
2017-06-29T15:33:50.344Z,23.40
2017-06-29T15:36:16.856Z,23.30
2017-06-29T15:38:43.377Z,23.20
2017-06-29T15:41:09.855Z,23.10
2017-06-29T15:43:36.346Z,23.00
2017-06-29T15:46:02.812Z,23.00
2017-06-29T15:48:29.450Z,22.90
2017-06-29T15:50:55.938Z,22.80
2017-06-29T15:53:22.441Z,22.70
2017-06-29T15:55:48.950Z,22.80
2017-06-29T15:58:15.418Z,22.70
2017-06-29T16:00:42.213Z,22.70
2017-06-29T16:03:08.720Z,22.60
2017-06-29T16:05:35.220Z,22.60
2017-06-29T16:08:02.482Z,22.50
2017-06-29T16:10:29.738Z,22.50
2017-06-29T16:12:57.241Z,22.50
2017-06-29T16:15:23.735Z,22.50
2017-06-29T16:17:50.217Z,22.40
2017-06-29T16:20:16.745Z,22.40
2017-06-29T16:22:43.234Z,22.30
2017-06-29T16:25:09.699Z,22.30
2017-06-29T16:27:36.219Z,22.30
2017-06-29T16:30:02.750Z,22.20
2017-06-29T16:32:29.327Z,22.20
2017-06-29T16:34:55.831Z,22.20
2017-06-29T16:37:23.532Z,22.20
2017-06-29T16:39:50.956Z,22.20
2017-06-29T16:42:17.459Z,22.20
2017-06-29T16:44:43.963Z,22.20
2017-06-29T16:47:11.239Z,22.20
2017-06-29T16:49:37.736Z,22.20
2017-06-29T16:52:04.374Z,22.30
2017-06-29T16:54:30.847Z,22.30
2017-06-29T16:56:57.332Z,22.20
2017-06-29T16:59:24.042Z,22.20
2017-06-29T17:01:50.522Z,22.20
2017-06-29T17:04:17.731Z,22.10
2017-06-29T17:06:44.235Z,22.00
2017-06-29T17:09:10.734Z,22.00
2017-06-29T17:11:38.003Z,21.80
2017-06-29T17:14:04.485Z,21.80
2017-06-29T17:16:32.013Z,21.60
2017-06-29T17:18:58.549Z,21.40
2017-06-29T17:21:25.051Z,21.10
2017-06-29T17:23:51.567Z,20.90
2017-06-29T17:26:18.799Z,20.40
2017-06-29T17:28:45.301Z,20.30
2017-06-29T17:31:11.799Z,19.90
2017-06-29T17:33:38.576Z,19.90
2017-06-29T17:36:05.073Z,19.70
2017-06-29T17:38:31.602Z,19.50
2017-06-29T17:40:58.121Z,19.30
2017-06-29T17:43:25.361Z,18.80
2017-06-29T17:45:51.895Z,18.80
2017-06-29T17:48:18.394Z,18.60
2017-06-29T17:50:45.139Z,18.40
2017-06-29T17:53:11.633Z,18.20
2017-06-29T17:55:38.178Z,18.00
2017-06-29T17:58:04.709Z,17.80
2017-06-29T18:00:31.202Z,17.70
2017-06-29T18:02:57.653Z,17.50
2017-06-29T18:05:24.911Z,17.30
2017-06-29T18:07:51.408Z,17.20
2017-06-29T18:10:17.911Z,17.20
2017-06-29T18:12:44.424Z,17.10
2017-06-29T18:15:10.950Z,17.00
2017-06-29T18:17:37.453Z,16.90
2017-06-29T18:20:04.671Z,16.80
2017-06-29T18:22:31.324Z,16.80
2017-06-29T18:24:57.826Z,16.80
2017-06-29T18:27:25.372Z,16.80
2017-06-29T18:29:51.890Z,16.70
2017-06-29T18:32:18.432Z,16.70
2017-06-29T18:34:44.933Z,16.60
2017-06-29T18:37:12.152Z,16.50
2017-06-29T18:39:38.784Z,16.50
2017-06-29T18:42:05.311Z,16.40
2017-06-29T18:44:31.823Z,16.40
2017-06-29T18:46:58.389Z,16.40
2017-06-29T18:49:24.897Z,16.30
2017-06-29T18:51:51.532Z,16.30
2017-06-29T18:54:18.067Z,16.30
2017-06-29T18:56:44.560Z,16.30
2017-06-29T18:59:11.869Z,16.20
2017-06-29T19:01:40.235Z,16.20
2017-06-29T19:04:06.807Z,16.20
2017-06-29T19:06:33.316Z,16.20
2017-06-29T19:08:59.834Z,16.20
2017-06-29T19:11:26.996Z,16.20
2017-06-29T19:13:53.482Z,16.10
2017-06-29T19:16:20.317Z,16.10
2017-06-29T19:18:46.936Z,16.10
2017-06-29T19:21:14.218Z,16.10
2017-06-29T19:23:41.133Z,16.10
2017-06-29T19:26:08.425Z,16.10
2017-06-29T19:28:35.131Z,16.00
2017-06-29T19:31:02.790Z,15.90
2017-06-29T19:33:29.396Z,15.90
2017-06-29T19:35:55.897Z,15.80
2017-06-29T19:38:22.647Z,15.80
2017-06-29T19:40:49.329Z,15.80
2017-06-29T19:43:16.910Z,15.70
2017-06-29T19:45:43.495Z,15.70
2017-06-29T19:48:10.004Z,15.70
2017-06-29T19:50:36.595Z,15.60
2017-06-29T19:53:03.158Z,15.60
2017-06-29T19:55:29.636Z,15.60
2017-06-29T19:57:56.181Z,15.50
2017-06-29T20:00:23.430Z,15.50
2017-06-29T20:02:50.890Z,15.40
2017-06-29T20:05:18.196Z,15.40
2017-06-29T20:07:44.859Z,15.40
2017-06-29T20:10:11.535Z,15.40
2017-06-29T20:12:38.071Z,15.30
2017-06-29T20:15:04.582Z,15.30
2017-06-29T20:17:31.933Z,15.30
2017-06-29T20:19:59.389Z,15.30
2017-06-29T20:22:26.629Z,15.30
2017-06-29T20:24:53.309Z,15.30
2017-06-29T20:27:19.889Z,15.30
2017-06-29T20:29:46.445Z,15.30
2017-06-29T20:32:13.678Z,15.30
2017-06-29T20:34:40.166Z,15.30
2017-06-29T20:37:06.705Z,15.30
2017-06-29T20:39:33.210Z,15.30
2017-06-29T20:42:00.479Z,15.30
2017-06-29T20:44:27.022Z,15.30
2017-06-29T20:46:53.508Z,15.30
2017-06-29T20:49:20.118Z,15.30
2017-06-29T20:51:46.602Z,15.30
2017-06-29T20:54:13.084Z,15.20
2017-06-29T20:56:39.647Z,15.30
2017-06-29T20:59:06.884Z,15.20
2017-06-29T21:01:33.386Z,15.20
2017-06-29T21:03:59.889Z,15.20
2017-06-29T21:06:26.392Z,15.20
2017-06-29T21:08:53.033Z,15.20
2017-06-29T21:11:20.289Z,15.20
2017-06-29T21:13:47.534Z,15.10
2017-06-29T21:16:14.789Z,15.10
2017-06-29T21:18:41.279Z,15.10
2017-06-29T21:21:07.778Z,15.10
2017-06-29T21:23:34.359Z,15.10
2017-06-29T21:26:00.847Z,15.10
2017-06-29T21:28:27.377Z,15.10
2017-06-29T21:30:53.856Z,15.10
2017-06-29T21:33:20.341Z,15.10
2017-06-29T21:35:46.857Z,15.10
2017-06-29T21:38:14.124Z,15.10
2017-06-29T21:40:40.636Z,15.00
2017-06-29T21:43:07.935Z,15.10
2017-06-29T21:45:34.474Z,15.00
2017-06-29T21:48:00.981Z,15.10
2017-06-29T21:50:27.535Z,15.00
2017-06-29T21:52:54.045Z,15.10
2017-06-29T21:55:20.576Z,15.10
2017-06-29T21:57:47.118Z,15.10
2017-06-29T22:00:13.634Z,15.00
2017-06-29T22:02:40.156Z,15.00
2017-06-29T22:05:07.383Z,15.10
2017-06-29T22:07:33.889Z,15.10
2017-06-29T22:10:00.511Z,15.10
2017-06-29T22:12:27.024Z,15.10
2017-06-29T22:14:53.537Z,15.20
2017-06-29T22:17:20.801Z,15.20
2017-06-29T22:19:47.292Z,15.20
2017-06-29T22:22:13.819Z,15.20
2017-06-29T22:24:40.309Z,15.20
2017-06-29T22:27:06.823Z,15.20
2017-06-29T22:29:34.113Z,15.30
2017-06-29T22:32:00.602Z,15.20
2017-06-29T22:34:27.827Z,15.30
2017-06-29T22:36:54.329Z,15.30
2017-06-29T22:39:20.815Z,15.30
2017-06-29T22:41:48.083Z,15.30
2017-06-29T22:44:14.568Z,15.30
2017-06-29T22:46:41.039Z,15.30
2017-06-29T22:49:08.275Z,15.40
2017-06-29T22:51:35.553Z,15.40
2017-06-29T22:54:02.023Z,15.30
2017-06-29T22:56:28.491Z,15.40
2017-06-29T22:58:54.979Z,15.40
2017-06-29T23:01:21.460Z,15.40
2017-06-29T23:03:48.685Z,15.40
2017-06-29T23:06:15.209Z,15.30
2017-06-29T23:08:41.700Z,15.40
2017-06-29T23:11:08.279Z,15.40
2017-06-29T23:13:34.799Z,15.40
2017-06-29T23:16:01.505Z,15.40
2017-06-29T23:18:28.013Z,15.40
2017-06-29T23:20:55.242Z,15.50
2017-06-29T23:23:21.951Z,15.40
2017-06-29T23:25:48.424Z,15.50
2017-06-29T23:28:15.656Z,15.50
2017-06-29T23:30:42.185Z,15.40
2017-06-29T23:33:08.693Z,15.50
2017-06-29T23:35:35.232Z,15.50
2017-06-29T23:38:01.701Z,15.40
2017-06-29T23:40:28.172Z,15.40
2017-06-29T23:42:54.739Z,15.40
2017-06-29T23:45:21.230Z,15.40
2017-06-29T23:47:48.475Z,15.40
2017-06-29T23:50:15.734Z,15.40
2017-06-29T23:52:42.199Z,15.40
2017-06-29T23:55:08.715Z,15.40
2017-06-29T23:57:35.183Z,15.40
